Peotone, Illinois
Current Conditions -  °F | °C
As of 5:55 PM on Monday 20 Oct 2014 (Local Time) from KIKK Reporting Station
Broken Clouds Broken Clouds  
Wind Chill: 61°   Ceiling: 6000
Heat Index: 61°   Visibility: 10mi
Dew Point: 44°   Wind: 9mph
Humidity: 53%   Direction: 310°NW
Pressure: 29.92"   Gusts: 16mph
Location:  41.33°N, 87.79°W
Report Text: KIKK 202255Z AUTO 31008G14KT 10SM BKN060 16/07 A2992 RMK AO2 T01630067
Loading
Personal Weather Stations






























Interactive Weather Map
Tropical Storm Tracking
New forecast layout! Learn more

10-Day Weather Forecast

Advertisements
Track Severe Weather on mobile